Time;durP1;ratioP1;P1;durP2;ratioP2;P2;SDS_P1;SDS_P2;PMS_P1;PMS_P2;Temp;Humidity;BMP_temperature;BMP_pressure;BME280_temperature;BME280_humidity;BME280_pressure;Samples;Min_cycle;Max_cycle;Signal;HPM_P1;HPM_P2
2022/01/22 00:00:59;;;;;;;0.10;0.10;;;1.80;99.90;226.50;231333.00;;;;4989457;28;20192;-75
2022/01/22 00:03:28;;;;;;;0.10;0.10;;;1.90;99.90;226.50;231333.00;;;;4990471;28;20252;-75
2022/01/22 00:05:56;;;;;;;0.10;0.10;;;2.00;99.90;226.50;231333.00;;;;4988296;28;20598;-75
2022/01/22 00:08:24;;;;;;;0.10;0.10;;;2.00;99.90;226.50;231333.00;;;;4990073;28;20211;-75
2022/01/22 00:10:53;;;;;;;0.10;0.10;;;2.10;99.90;226.50;231333.00;;;;4990349;28;20216;-75
2022/01/22 00:16:07;;;;;;;0.10;0.10;;;2.10;99.90;226.50;231333.00;;;;4989591;28;20209;-74
2022/01/22 00:18:37;;;;;;;0.10;0.10;;;2.20;99.90;226.50;231333.00;;;;4989842;28;20552;-75
2022/01/22 00:21:05;;;;;;;0.10;0.10;;;2.30;99.90;226.50;231333.00;;;;4988803;28;20197;-75
2022/01/22 00:23:33;;;;;;;0.10;0.10;;;2.30;99.90;226.50;231333.00;;;;4989184;28;20223;-74
2022/01/22 00:26:01;;;;;;;0.10;0.10;;;2.30;99.90;226.50;231333.00;;;;4988818;28;20600;-74
2022/01/22 00:28:28;;;;;;;0.10;0.10;;;2.30;99.90;226.50;231333.00;;;;4988776;28;20223;-74
2022/01/22 00:30:56;;;;;;;0.10;0.10;;;2.40;99.90;226.50;231333.00;;;;4987830;28;20744;-74
2022/01/22 00:33:24;;;;;;;0.10;0.10;;;2.40;99.90;226.50;231333.00;;;;4994584;28;20212;-73
2022/01/22 00:35:54;;;;;;;0.10;0.10;;;2.50;99.90;226.50;231333.00;;;;4989142;28;20254;-74
2022/01/22 00:38:22;;;;;;;0.10;0.10;;;2.50;99.90;226.50;231333.00;;;;4988324;28;20196;-74
2022/01/22 00:40:51;;;;;;;0.10;0.10;;;2.50;99.90;226.50;231333.00;;;;4988884;28;20196;-74
2022/01/22 00:43:21;;;;;;;0.10;0.10;;;2.60;99.90;226.50;231333.00;;;;4992765;28;20220;-73
2022/01/22 00:45:49;;;;;;;0.10;0.10;;;2.60;99.90;226.50;231333.00;;;;4986809;28;20224;-73
2022/01/22 00:48:17;;;;;;;0.10;0.10;;;2.60;99.90;0.90;96130.00;;;;4988968;28;20629;-73
2022/01/22 00:50:47;;;;;;;0.10;0.10;;;2.70;99.90;0.90;95876.00;;;;4989235;28;20666;-73
2022/01/22 00:53:17;;;;;;;0.10;0.10;;;2.70;99.90;0.70;96547.00;;;;5004031;28;20213;-73
2022/01/22 00:55:44;;;;;;;0.10;0.10;;;2.70;99.90;0.90;96782.00;;;;4988784;28;20204;-74
2022/01/22 00:58:13;;;;;;;0.10;0.10;;;2.80;99.90;0.90;96677.00;;;;4989220;28;20617;-74
2022/01/22 01:00:41;;;;;;;0.10;0.10;;;2.80;99.90;0.90;96692.00;;;;4985154;28;20232;-74
2022/01/22 01:03:10;;;;;;;0.10;0.10;;;2.80;99.90;0.90;96739.00;;;;4987633;28;20220;-74
2022/01/22 01:05:38;;;;;;;0.10;0.10;;;2.80;99.90;0.90;96746.00;;;;4988331;28;21450;-74
2022/01/22 01:08:07;;;;;;;0.10;0.10;;;2.80;99.90;0.90;96718.00;;;;5003046;28;20636;-74
2022/01/22 01:10:36;;;;;;;0.10;0.10;;;2.80;99.90;0.90;96693.00;;;;4988818;28;20681;-73
2022/01/22 01:13:05;;;;;;;0.10;0.10;;;2.80;99.90;0.90;96707.00;;;;4987301;28;20281;-73
2022/01/22 01:15:40;;;;;;;0.10;0.10;;;2.80;99.90;0.90;96672.00;;;;5004266;28;20207;-73
2022/01/22 01:32:19;;;;;;;0.10;0.10;;;3.00;99.90;1.20;96572.00;;;;4988370;28;20184;-74
2022/01/22 01:34:50;;;;;;;0.10;0.10;;;3.00;99.90;1.20;96496.00;;;;4989288;28;20278;-73
2022/01/22 01:37:20;;;;;;;0.10;0.10;;;3.00;99.90;1.20;96054.00;;;;5000813;28;20208;-73
2022/01/22 01:39:54;;;;;;;0.10;0.10;;;3.10;99.90;1.20;96403.00;;;;5005776;28;20196;-73
2022/01/22 01:42:32;;;;;;;0.10;0.10;;;3.10;99.90;1.20;96558.00;;;;4992619;28;20229;-74
2022/01/22 01:45:05;;;;;;;0.10;0.10;;;3.10;99.90;1.30;96153.00;;;;5008814;28;20255;-73
2022/01/22 01:47:46;;;;;;;0.10;0.10;;;3.20;99.90;1.60;95175.00;;;;5000064;28;20187;-74
2022/01/22 01:50:14;;;;;;;0.10;0.10;;;3.10;99.90;1.70;95323.00;;;;5023587;28;20212;-73
2022/01/22 01:52:47;;;;;;;0.10;0.10;;;3.10;99.90;1.60;95273.00;;;;5009263;28;20235;-74
2022/01/22 01:55:21;;;;;;;0.10;0.10;;;3.10;99.90;1.60;95319.00;;;;4994682;28;20242;-74
2022/01/22 01:57:50;;;;;;;0.10;0.10;;;3.20;99.90;1.50;95625.00;;;;5009240;28;20192;-74
2022/01/22 02:00:26;;;;;;;0.10;0.10;;;3.20;99.90;1.50;95576.00;;;;5007611;28;20218;-74
2022/01/22 02:02:59;;;;;;;0.10;0.10;;;3.20;99.90;1.50;95481.00;;;;4992394;28;20256;-73
2022/01/22 02:05:34;;;;;;;0.10;0.10;;;3.20;99.90;1.50;95608.00;;;;4999270;28;20567;-74
2022/01/22 02:08:04;;;;;;;0.10;0.10;;;3.20;99.90;1.40;95714.00;;;;4991240;28;20207;-75
2022/01/22 02:10:46;;;;;;;0.10;0.10;;;3.20;99.90;1.50;95480.00;;;;4991066;28;20208;-75
2022/01/22 02:13:46;;;;;;;0.10;0.10;;;3.20;99.90;1.40;95907.00;;;;4989497;28;20212;-75
2022/01/22 02:24:52;;;;;;;0.10;0.10;;;3.20;99.90;1.40;96554.00;;;;5005911;28;20239;-74
2022/01/22 02:27:21;;;;;;;0.10;0.10;;;3.30;99.90;1.30;96448.00;;;;4991311;28;20194;-74
2022/01/22 02:29:50;;;;;;;0.10;0.10;;;3.20;99.90;1.30;96632.00;;;;4998670;28;20200;-74
2022/01/22 02:32:57;;;;;;;0.10;0.10;;;3.20;99.90;1.20;96539.00;;;;4988945;28;20208;-74
2022/01/22 02:35:33;;;;;;;0.10;0.10;;;3.20;99.90;1.30;96426.00;;;;4990392;28;20204;-75
2022/01/22 02:38:12;;;;;;;0.10;0.10;;;3.20;99.90;1.20;96352.00;;;;4991229;28;20192;-74
2022/01/22 02:40:46;;;;;;;0.10;0.10;;;3.10;99.90;1.20;96174.00;;;;4991872;28;20192;-76
2022/01/22 02:43:16;;;;;;;0.10;0.10;;;3.20;99.90;1.30;96409.00;;;;4997746;28;20224;-76
2022/01/22 02:45:46;;;;;;;0.10;0.10;;;3.20;99.90;1.30;96447.00;;;;4989144;28;20966;-76
2022/01/22 02:48:14;;;;;;;0.10;0.10;;;3.20;99.90;1.40;96396.00;;;;4995984;28;20200;-74
2022/01/22 02:50:43;;;;;;;0.10;0.10;;;3.20;99.90;1.40;96318.00;;;;4989658;28;20202;-75
2022/01/22 02:53:14;;;;;;;0.10;0.10;;;3.30;99.90;1.30;96315.00;;;;4995834;28;20302;-75
2022/01/22 02:55:45;;;;;;;0.10;0.10;;;3.20;99.90;1.20;96376.00;;;;4988216;28;20810;-74
2022/01/22 02:58:15;;;;;;;0.10;0.10;;;3.20;99.90;1.30;96247.00;;;;4989554;28;20283;-74
2022/01/22 03:00:43;;;;;;;0.10;0.10;;;3.30;99.90;1.50;96140.00;;;;4997782;28;20207;-75
2022/01/22 03:03:12;;;;;;;0.10;0.10;;;3.30;99.90;1.60;96222.00;;;;4989090;28;20239;-74
2022/01/22 03:05:40;;;;;;;0.10;0.10;;;3.50;99.90;1.50;96114.00;;;;4989503;28;20216;-72
2022/01/22 03:08:10;;;;;;;0.10;0.10;;;3.40;99.90;1.50;96215.00;;;;4989024;28;20220;-75
2022/01/22 03:10:43;;;;;;;0.10;0.10;;;3.40;99.90;1.50;95963.00;;;;4990560;28;20193;-73
2022/01/22 03:13:35;;;;;;;0.10;0.10;;;3.40;99.90;1.60;96134.00;;;;4990968;28;20212;-75
2022/01/22 03:16:11;;;;;;;0.10;0.10;;;3.50;99.90;1.60;96097.00;;;;4987414;28;20212;-75
2022/01/22 03:18:47;;;;;;;0.10;0.10;;;3.50;99.90;1.60;96183.00;;;;4989105;28;20282;-75
2022/01/22 03:21:33;;;;;;;0.10;0.10;;;3.50;99.90;226.50;231333.00;;;;5006016;28;20665;-75
2022/01/22 03:27:20;;;;;;;0.10;0.10;;;3.50;99.90;226.50;231333.00;;;;4943959;28;20240;-75
2022/01/22 03:29:47;;;;;;;0.10;0.10;;;3.50;99.90;226.50;231333.00;;;;4941501;29;20281;-75
2022/01/22 03:32:15;;;;;;;0.10;0.10;;;3.50;99.90;226.50;231333.00;;;;4976487;28;20227;-74
2022/01/22 03:34:54;;;;;;;0.10;0.10;;;3.50;99.90;226.50;231333.00;;;;4990521;28;20247;-74
2022/01/22 03:37:25;;;;;;;0.10;0.10;;;3.50;99.90;226.50;231333.00;;;;5006174;28;20556;-74
2022/01/22 03:39:55;;;;;;;0.10;0.10;;;3.50;99.90;226.50;231333.00;;;;5005547;28;20205;-74
2022/01/22 03:42:24;;;;;;;0.10;0.10;;;3.50;99.90;226.50;231333.00;;;;4989750;28;20254;-75
2022/01/22 03:44:53;;;;;;;0.10;0.10;;;3.50;99.90;226.50;231333.00;;;;5003783;28;20196;-74
2022/01/22 03:47:21;;;;;;;0.10;0.10;;;3.50;99.90;226.50;231333.00;;;;4988031;28;20249;-75
2022/01/22 03:49:49;;;;;;;0.10;0.10;;;3.50;99.90;226.50;231333.00;;;;4989171;28;20205;-75
2022/01/22 03:52:18;;;;;;;0.10;0.10;;;3.50;99.90;226.50;231333.00;;;;4996988;28;20196;-74
2022/01/22 03:54:46;;;;;;;0.10;0.10;;;3.50;99.90;226.50;231333.00;;;;5004327;28;20212;-75
2022/01/22 03:57:24;;;;;;;0.10;0.10;;;3.50;99.90;226.50;231333.00;;;;5005042;28;21449;-76
2022/01/22 03:59:54;;;;;;;0.10;0.10;;;3.50;99.90;226.50;231333.00;;;;5004350;28;20198;-76
2022/01/22 04:03:18;;;;;;;0.10;0.10;;;3.50;99.90;226.50;231333.00;;;;4989650;28;20673;-75
2022/01/22 04:06:01;;;;;;;0.10;0.10;;;3.60;99.90;226.50;231333.00;;;;4985744;28;20221;-75
2022/01/22 04:08:29;;;;;;;0.10;0.10;;;3.50;99.90;226.50;231333.00;;;;5006039;28;20197;-74
2022/01/22 04:10:57;;;;;;;0.10;0.10;;;3.60;99.90;226.50;231333.00;;;;5004992;28;20202;-75
2022/01/22 04:13:32;;;;;;;0.10;0.10;;;3.60;99.90;226.50;231333.00;;;;5002179;28;20600;-76
2022/01/22 04:16:00;;;;;;;0.10;0.10;;;3.60;99.90;226.50;231333.00;;;;4988311;28;20216;-76
2022/01/22 04:26:55;;;;;;;0.10;0.10;;;3.70;99.90;226.50;231333.00;;;;4988205;28;21537;-75
2022/01/22 04:29:27;;;;;;;0.10;0.10;;;3.70;99.90;226.50;231333.00;;;;4989410;28;20259;-75
2022/01/22 04:31:55;;;;;;;0.10;0.10;;;3.60;99.90;226.50;231333.00;;;;4987105;28;20207;-75
2022/01/22 04:34:23;;;;;;;0.10;0.10;;;3.60;99.90;226.50;231333.00;;;;4989032;28;20220;-75
2022/01/22 04:36:51;;;;;;;0.10;0.10;;;3.70;99.90;226.50;231333.00;;;;4987218;28;20674;-74
2022/01/22 04:39:22;;;;;;;0.10;0.10;;;3.70;99.90;226.50;231333.00;;;;4988571;28;20243;-74
2022/01/22 04:41:52;;;;;;;0.10;0.10;;;3.70;99.90;226.50;231333.00;;;;4996619;28;20239;-75
2022/01/22 04:44:21;;;;;;;0.10;0.10;;;3.60;99.90;226.50;231333.00;;;;5004044;28;20223;-74
2022/01/22 04:47:02;;;;;;;0.10;0.10;;;3.60;99.90;226.50;231333.00;;;;4988107;28;20224;-76
2022/01/22 04:52:36;;;;;;;0.10;0.10;;;3.70;99.90;226.50;231333.00;;;;4995236;28;20255;-75
2022/01/22 04:55:05;;;;;;;0.10;0.10;;;3.70;99.90;226.50;231333.00;;;;5003828;28;20207;-75
2022/01/22 04:57:39;;;;;;;0.10;0.10;;;3.70;99.90;226.50;231333.00;;;;5004050;28;20192;-75
2022/01/22 05:00:10;;;;;;;0.10;0.10;;;3.60;99.90;226.50;231333.00;;;;4989493;28;20216;-75
2022/01/22 05:03:18;;;;;;;0.10;0.10;;;3.70;99.90;226.50;231333.00;;;;4959622;28;20565;-76
2022/01/22 05:06:13;;;;;;;0.10;0.10;;;3.60;99.90;226.50;231333.00;;;;4959819;28;20233;-75
2022/01/22 05:08:55;;;;;;;0.10;0.10;;;3.70;99.90;226.50;231333.00;;;;4995527;28;20324;-75
2022/01/22 05:11:30;;;;;;;0.10;0.10;;;3.70;99.90;226.50;231333.00;;;;4995372;28;20199;-75
2022/01/22 05:13:59;;;;;;;0.10;0.10;;;3.70;99.90;226.50;231333.00;;;;4991932;28;20250;-73
2022/01/22 05:16:27;;;;;;;0.10;0.10;;;3.80;99.90;226.50;231333.00;;;;5009570;28;20729;-73
2022/01/22 05:19:03;;;;;;;0.10;0.10;;;3.90;99.90;226.50;231333.00;;;;5000480;28;20193;-74
2022/01/22 05:21:36;;;;;;;0.10;0.10;;;3.90;99.90;226.50;231333.00;;;;4988816;28;20192;-75
2022/01/22 05:24:09;;;;;;;0.10;0.10;;;3.90;99.90;226.50;231333.00;;;;5006016;28;20248;-74
2022/01/22 05:27:00;;;;;;;0.10;0.10;;;3.90;99.90;226.50;231333.00;;;;5002711;28;20215;-71
2022/01/22 05:29:58;;;;;;;0.10;0.10;;;3.90;99.90;226.50;231333.00;;;;5029093;28;20226;-71
2022/01/22 05:32:57;;;;;;;0.10;0.10;;;3.90;99.90;226.50;231333.00;;;;4995806;28;20214;-73
2022/01/22 05:38:18;;;;;;;0.10;0.10;;;3.90;99.90;226.50;231333.00;;;;4988937;28;20214;-75
2022/01/22 05:40:47;;;;;;;0.10;0.10;;;4.00;99.90;226.50;231333.00;;;;4987868;28;21372;-75
2022/01/22 05:43:16;;;;;;;0.10;0.10;;;4.00;99.90;226.50;231333.00;;;;5001726;28;20220;-74
2022/01/22 05:45:44;;;;;;;0.10;0.10;;;4.00;99.90;226.50;231333.00;;;;4987058;28;20196;-75
2022/01/22 05:48:14;;;;;;;0.10;0.10;;;4.00;99.90;226.50;231333.00;;;;4986864;28;20325;-75
2022/01/22 05:50:50;;;;;;;0.10;0.10;;;4.10;99.90;226.50;231333.00;;;;4986684;28;20207;-75
2022/01/22 05:53:33;;;;;;;0.10;0.10;;;4.10;99.90;226.50;231333.00;;;;4995625;28;20258;-75
2022/01/22 06:01:43;;;;;;;0.10;0.10;;;4.20;99.90;226.50;231333.00;;;;4995357;28;20204;-75
2022/01/22 06:04:17;;;;;;;0.10;0.10;;;4.20;99.90;226.50;231333.00;;;;4987728;28;20208;-75
2022/01/22 06:06:49;;;;;;;0.10;0.10;;;4.20;99.90;226.50;231333.00;;;;4988843;28;20204;-76
2022/01/22 06:09:18;;;;;;;0.10;0.10;;;4.20;99.90;226.50;231333.00;;;;4986859;28;20221;-74
2022/01/22 06:11:55;;;;;;;0.10;0.10;;;4.20;99.90;226.50;231333.00;;;;4987108;28;20184;-72
2022/01/22 06:14:29;;;;;;;0.10;0.10;;;4.30;99.90;226.50;231333.00;;;;4987914;28;20215;-75
2022/01/22 06:16:59;;;;;;;0.10;0.10;;;4.30;99.90;226.50;231333.00;;;;4988029;28;20291;-77
2022/01/22 06:19:33;;;;;;;0.10;0.10;;;4.30;99.90;226.50;231333.00;;;;4988065;28;20196;-75
2022/01/22 06:22:04;;;;;;;0.10;0.10;;;4.40;99.90;226.50;231333.00;;;;4985261;28;20205;-75
2022/01/22 06:24:33;;;;;;;0.10;0.10;;;4.40;99.90;226.50;231333.00;;;;4995312;28;20216;-76
2022/01/22 06:27:06;;;;;;;0.10;0.10;;;4.30;99.90;226.50;231333.00;;;;4986899;28;20224;-76
2022/01/22 06:29:34;;;;;;;0.10;0.10;;;4.30;99.90;226.50;231333.00;;;;5002823;28;20196;-74
2022/01/22 06:32:03;;;;;;;0.10;0.10;;;4.40;99.90;226.50;231333.00;;;;5006601;28;20224;-75
2022/01/22 06:34:35;;;;;;;0.10;0.10;;;4.40;99.90;226.50;231333.00;;;;4998316;28;20327;-75
2022/01/22 06:37:05;;;;;;;0.10;0.10;;;4.30;99.90;226.50;231333.00;;;;5006950;28;20217;-75
2022/01/22 06:41:44;;;;;;;0.10;0.10;;;4.30;99.90;226.50;231333.00;;;;5008054;28;20208;-76
2022/01/22 06:43:00;;;;;;;0.10;0.10;;;4.30;99.90;226.50;231333.00;;;;4992318;28;20310;-75
2022/01/22 06:45:57;;;;;;;0.10;0.10;;;4.30;99.90;2.50;96587.00;;;;4979089;28;20204;-75
2022/01/22 06:48:26;;;;;;;0.10;0.10;;;4.30;99.90;226.50;231333.00;;;;5005829;28;20225;-75
2022/01/22 06:51:14;;;;;;;0.10;0.10;;;4.40;99.90;226.50;231333.00;;;;4991556;28;20255;-76
2022/01/22 06:53:44;;;;;;;0.10;0.10;;;4.40;99.90;226.50;231333.00;;;;4989715;28;20208;-75
2022/01/22 06:56:19;;;;;;;0.10;0.10;;;4.40;99.90;226.50;231333.00;;;;4996823;28;20200;-75
2022/01/22 06:59:09;;;;;;;0.10;0.10;;;4.30;99.90;226.50;231333.00;;;;4992311;28;20216;-75
2022/01/22 07:01:39;;;;;;;0.10;0.10;;;4.40;99.90;226.50;231333.00;;;;5007100;28;20193;-75
2022/01/22 07:04:17;;;;;;;0.10;0.10;;;4.30;99.90;226.50;231333.00;;;;4990958;28;20212;-76
2022/01/22 07:06:58;;;;;;;0.10;0.10;;;4.40;99.90;226.50;231333.00;;;;4997550;28;20976;-75
2022/01/22 07:09:30;;;;;;;0.10;0.10;;;4.40;99.90;226.50;231333.00;;;;5005855;28;20287;-75
2022/01/22 07:11:58;;;;;;;0.10;0.10;;;4.40;99.90;226.50;231333.00;;;;4990281;28;20203;-75
2022/01/22 07:14:27;;;;;;;0.10;0.10;;;4.40;99.90;226.50;231333.00;;;;4992437;28;21753;-74
2022/01/22 07:16:56;;;;;;;0.10;0.10;;;4.40;99.90;226.50;231333.00;;;;5006845;28;20235;-75
2022/01/22 07:19:54;;;;;;;0.10;0.10;;;4.40;99.90;226.50;231333.00;;;;4978764;28;20197;-74
2022/01/22 07:22:35;;;;;;;0.10;0.10;;;4.40;99.90;226.50;231333.00;;;;4989001;28;20193;-74
2022/01/22 07:25:15;;;;;;;0.10;0.10;;;4.30;99.90;226.50;231333.00;;;;4998098;28;20259;-76
2022/01/22 07:27:43;;;;;;;0.10;0.10;;;4.30;99.90;226.50;231333.00;;;;5004968;28;20243;-78
2022/01/22 07:30:13;;;;;;;0.10;0.10;;;4.30;99.90;226.50;231333.00;;;;5004680;28;20579;-76
2022/01/22 07:32:43;;;;;;;0.10;0.10;;;4.40;99.90;226.50;231333.00;;;;5007266;28;20200;-75
2022/01/22 07:35:15;;;;;;;0.10;0.10;;;4.40;99.90;226.50;231333.00;;;;4993030;28;20307;-75
2022/01/22 07:37:44;;;;;;;0.10;0.10;;;4.40;99.90;226.50;231333.00;;;;4997369;28;20209;-74
2022/01/22 07:40:22;;;;;;;0.10;0.10;;;4.30;99.90;226.50;231333.00;;;;4989929;28;20696;-74
2022/01/22 07:43:01;;;;;;;0.10;0.10;;;4.40;99.90;226.50;231333.00;;;;4991859;28;20229;-74
2022/01/22 07:45:48;;;;;;;0.10;0.10;;;4.40;99.90;226.50;231333.00;;;;4992620;28;20303;-75
2022/01/22 07:48:24;;;;;;;0.10;0.10;;;4.40;99.90;226.50;231333.00;;;;4993104;28;20223;-72
2022/01/22 07:51:10;;;;;;;0.10;0.10;;;4.30;99.90;226.50;231333.00;;;;4991302;28;20793;-74
2022/01/22 07:53:38;;;;;;;0.10;0.10;;;4.30;99.90;226.50;231333.00;;;;5005627;28;20299;-74
2022/01/22 07:56:15;;;;;;;0.10;0.10;;;4.40;99.90;226.50;231333.00;;;;4987923;28;20199;-74
2022/01/22 07:58:43;;;;;;;0.10;0.10;;;4.40;99.90;226.50;231333.00;;;;4990895;28;20196;-74
2022/01/22 08:01:11;;;;;;;0.10;0.10;;;4.40;99.90;226.50;231333.00;;;;4989204;28;20193;-75
2022/01/22 08:03:58;;;;;;;0.10;0.10;;;4.40;99.90;226.50;231333.00;;;;4990099;28;20375;-76
2022/01/22 08:07:04;;;;;;;0.10;0.10;;;4.50;99.90;226.50;231333.00;;;;4989939;28;20275;-74
2022/01/22 08:09:51;;;;;;;0.10;0.10;;;4.40;99.90;226.50;231333.00;;;;4991282;28;21762;-75
2022/01/22 08:12:26;;;;;;;0.10;0.10;;;4.50;99.90;226.50;231333.00;;;;4990399;28;20309;-75
2022/01/22 08:15:10;;;;;;;0.10;0.10;;;4.40;99.90;226.50;231333.00;;;;4989476;28;20215;-75
2022/01/22 08:17:39;;;;;;;0.10;0.10;;;4.40;99.90;226.50;231333.00;;;;5004767;28;20292;-75
2022/01/22 08:20:12;;;;;;;0.10;0.10;;;4.40;99.90;226.50;231333.00;;;;4990443;28;20196;-76
2022/01/22 08:22:59;;;;;;;0.10;0.10;;;4.40;99.90;226.50;231333.00;;;;4989184;28;20971;-75
2022/01/22 08:25:47;;;;;;;0.10;0.10;;;4.40;99.90;226.50;231333.00;;;;4987320;28;20274;-75
2022/01/22 08:31:19;;;;;;;0.10;0.10;;;4.40;99.90;226.50;231333.00;;;;4989287;28;20310;-75
2022/01/22 08:36:33;;;;;;;0.10;0.10;;;4.40;99.90;226.50;231333.00;;;;5004413;28;20327;-74
2022/01/22 08:39:03;;;;;;;0.10;0.10;;;4.40;99.90;226.50;231333.00;;;;5009154;28;20227;-74
2022/01/22 08:41:32;;;;;;;0.10;0.10;;;4.40;99.90;226.50;231333.00;;;;4989832;28;20200;-74
2022/01/22 08:44:02;;;;;;;0.10;0.10;;;4.40;99.90;226.50;231333.00;;;;5005071;28;20271;-75
2022/01/22 08:46:31;;;;;;;0.10;0.10;;;4.40;99.90;226.50;231333.00;;;;4988978;28;20198;-73
2022/01/22 08:48:59;;;;;;;0.10;0.10;;;4.40;99.90;226.50;231333.00;;;;4995750;28;20247;-72
2022/01/22 08:51:29;;;;;;;0.10;0.10;;;4.50;99.90;226.50;231333.00;;;;4996354;28;20204;-72
2022/01/22 08:53:59;;;;;;;0.10;0.10;;;4.50;99.90;226.50;231333.00;;;;5015532;28;20220;-72
2022/01/22 08:56:28;;;;;;;0.10;0.10;;;4.50;99.90;226.50;231333.00;;;;5020744;28;20264;-73
2022/01/22 08:58:58;;;;;;;0.10;0.10;;;4.50;99.90;226.50;231333.00;;;;4987593;28;20766;-73
2022/01/22 09:01:39;;;;;;;0.10;0.10;;;4.50;99.90;226.50;231333.00;;;;4989686;28;20211;-73
2022/01/22 09:04:20;;;;;;;0.10;0.10;;;4.50;99.90;226.50;231333.00;;;;4999034;28;20279;-73
2022/01/22 09:07:06;;;;;;;0.10;0.10;;;4.50;99.90;226.50;231333.00;;;;5007766;28;20209;-73
2022/01/22 09:09:57;;;;;;;0.10;0.10;;;4.50;99.90;226.50;231333.00;;;;4992362;28;20586;-73
2022/01/22 09:12:45;;;;;;;0.10;0.10;;;4.50;99.90;226.50;231333.00;;;;4987003;28;20613;-73
2022/01/22 09:15:22;;;;;;;0.10;0.10;;;4.60;99.90;226.50;231333.00;;;;4987142;28;20227;-73
2022/01/22 09:17:51;;;;;;;0.10;0.10;;;4.50;99.90;226.50;231333.00;;;;4987925;28;20227;-73
2022/01/22 09:20:42;;;;;;;0.10;0.10;;;4.60;99.90;226.50;231333.00;;;;4987156;28;20276;-73
2022/01/22 09:23:12;;;;;;;0.10;0.10;;;4.60;99.90;226.50;231333.00;;;;4987797;28;20270;-73
2022/01/22 09:25:42;;;;;;;0.10;0.10;;;4.60;99.90;226.50;231333.00;;;;4988535;28;20261;-73
2022/01/22 09:28:12;;;;;;;0.10;0.10;;;4.60;99.90;226.50;231333.00;;;;5004271;28;20215;-74
2022/01/22 09:30:44;;;;;;;0.10;0.10;;;4.60;99.90;226.50;231333.00;;;;4995696;28;20290;-73
2022/01/22 09:33:13;;;;;;;0.10;0.10;;;4.60;99.90;226.50;231333.00;;;;5002534;28;20220;-73
2022/01/22 09:36:00;;;;;;;0.10;0.10;;;4.60;99.90;226.50;231333.00;;;;4988688;28;20208;-73
2022/01/22 09:38:46;;;;;;;0.10;0.10;;;4.70;99.90;226.50;231333.00;;;;4989110;28;20290;-73
2022/01/22 09:41:15;;;;;;;0.10;0.10;;;4.70;99.90;226.50;231333.00;;;;4988927;28;20242;-73
2022/01/22 09:44:02;;;;;;;0.10;0.10;;;4.70;99.90;226.50;231333.00;;;;4988457;28;20300;-74
2022/01/22 09:46:44;;;;;;;0.10;0.10;;;4.70;99.90;226.50;231333.00;;;;4986983;28;20196;-73
2022/01/22 09:49:28;;;;;;;0.10;0.10;;;4.70;99.90;226.50;231333.00;;;;4987711;28;20231;-73
2022/01/22 09:52:15;;;;;;;0.10;0.10;;;4.70;99.90;226.50;231333.00;;;;4987819;28;20212;-74
2022/01/22 09:54:58;;;;;;;0.10;0.10;;;4.70;99.90;226.50;231333.00;;;;4995678;28;20692;-73
2022/01/22 09:57:54;;;;;;;0.10;0.10;;;4.80;99.90;226.50;231333.00;;;;4986575;28;20205;-73
2022/01/22 10:00:41;;;;;;;0.10;0.10;;;4.80;99.90;226.50;231333.00;;;;4988320;28;20214;-73
2022/01/22 10:03:22;;;;;;;0.10;0.10;;;4.80;99.90;226.50;231333.00;;;;4986525;28;20220;-73
2022/01/22 10:06:28;;;;;;;0.10;0.10;;;4.80;99.90;226.50;231333.00;;;;4991098;28;20282;-73
2022/01/22 10:09:26;;;;;;;0.10;0.10;;;4.80;99.90;226.50;231333.00;;;;4991573;28;20282;-74
2022/01/22 10:12:21;;;;;;;0.10;0.10;;;4.80;99.90;226.50;231333.00;;;;5008321;28;20200;-73
2022/01/22 10:15:21;;;;;;;0.10;0.10;;;4.80;99.90;226.50;231333.00;;;;4930416;28;20206;-73
2022/01/22 10:17:53;;;;;;;0.10;0.10;;;4.90;99.90;226.50;231333.00;;;;4991689;28;20251;-73
2022/01/22 10:20:36;;;;;;;0.10;0.10;;;4.90;99.90;226.50;231333.00;;;;4996003;28;20259;-73
2022/01/22 10:23:16;;;;;;;0.10;0.10;;;4.90;99.90;226.50;231333.00;;;;4992479;28;20220;-73
2022/01/22 10:25:50;;;;;;;0.10;0.10;;;4.90;99.90;226.50;231333.00;;;;4991970;28;20272;-73
2022/01/22 10:28:22;;;;;;;0.10;0.10;;;4.90;99.90;226.50;231333.00;;;;4988133;28;20193;-73
2022/01/22 10:30:55;;;;;;;0.10;0.10;;;5.00;99.90;226.50;231333.00;;;;4990314;28;20906;-73
2022/01/22 10:33:33;;;;;;;0.10;0.10;;;5.00;99.90;226.50;231333.00;;;;4990776;28;21307;-73
2022/01/22 10:36:23;;;;;;;0.10;0.10;;;5.00;99.90;226.50;231333.00;;;;4991451;28;20397;-73
2022/01/22 10:39:26;;;;;;;0.10;0.10;;;5.00;99.90;226.50;231333.00;;;;4992000;28;20665;-73
2022/01/22 10:41:57;;;;;;;0.10;0.10;;;5.10;99.90;226.50;231333.00;;;;4991730;28;20210;-73
2022/01/22 10:44:45;;;;;;;0.10;0.10;;;5.10;99.90;226.50;231333.00;;;;4992638;28;20259;-73
2022/01/22 10:47:19;;;;;;;0.10;0.10;;;5.10;99.90;226.50;231333.00;;;;5000797;28;20578;-73
2022/01/22 10:49:48;;;;;;;0.10;0.10;;;5.10;99.90;226.50;231333.00;;;;4991297;28;20211;-73
2022/01/22 10:52:16;;;;;;;0.10;0.10;;;5.10;99.90;226.50;231333.00;;;;4992065;28;20205;-73
2022/01/22 10:54:46;;;;;;;0.10;0.10;;;5.10;99.90;226.50;231333.00;;;;4990997;28;20224;-73
2022/01/22 10:57:16;;;;;;;0.10;0.10;;;5.10;99.90;226.50;231333.00;;;;4991157;28;20585;-73
2022/01/22 10:59:50;;;;;;;0.10;0.10;;;5.10;99.90;226.50;231333.00;;;;4991412;28;20251;-72
2022/01/22 11:02:30;;;;;;;0.10;0.10;;;5.10;99.90;226.50;231333.00;;;;4990622;28;20259;-73
2022/01/22 11:04:58;;;;;;;0.10;0.10;;;5.10;99.90;226.50;231333.00;;;;4990876;28;20196;-73
2022/01/22 11:07:26;;;;;;;0.10;0.10;;;5.10;99.90;226.50;231333.00;;;;4989942;28;20239;-73
2022/01/22 11:10:05;;;;;;;0.10;0.10;;;5.10;99.90;226.50;231333.00;;;;4991091;28;20588;-73
2022/01/22 11:12:33;;;;;;;0.10;0.10;;;5.10;99.90;226.50;231333.00;;;;4988725;28;20200;-73
2022/01/22 11:15:02;;;;;;;0.10;0.10;;;5.10;99.90;226.50;231333.00;;;;4990307;28;20713;-73
2022/01/22 11:17:34;;;;;;;0.10;0.10;;;5.10;99.90;226.50;231333.00;;;;4989423;28;20259;-73
2022/01/22 11:20:04;;;;;;;0.10;0.10;;;5.10;99.90;226.50;231333.00;;;;4989941;28;20686;-73
2022/01/22 11:22:33;;;;;;;0.10;0.10;;;5.10;99.90;226.50;231333.00;;;;4991682;28;20200;-73
2022/01/22 11:25:06;;;;;;;0.10;0.10;;;5.10;99.90;226.50;231333.00;;;;4991168;28;20271;-73
2022/01/22 11:27:36;;;;;;;0.10;0.10;;;5.10;99.90;226.50;231333.00;;;;4991003;28;20239;-73
2022/01/22 11:30:09;;;;;;;0.10;0.10;;;5.10;99.90;226.50;231333.00;;;;4989963;28;20220;-71
2022/01/22 11:32:45;;;;;;;0.10;0.10;;;5.00;99.90;226.50;231333.00;;;;4990485;28;20200;-71
2022/01/22 11:35:20;;;;;;;0.10;0.10;;;5.00;99.90;226.50;231333.00;;;;4988436;28;20195;-71
2022/01/22 11:37:51;;;;;;;0.10;0.10;;;5.00;99.90;226.50;231333.00;;;;4990069;28;20207;-71
2022/01/22 11:40:25;;;;;;;0.10;0.10;;;5.00;99.90;226.50;231333.00;;;;4990551;28;20251;-72
2022/01/22 11:42:59;;;;;;;0.10;0.10;;;5.10;99.90;226.50;231333.00;;;;4987933;28;20208;-71
2022/01/22 11:45:31;;;;;;;0.10;0.10;;;5.10;99.90;226.50;231333.00;;;;4989220;28;20322;-71
2022/01/22 11:48:16;;;;;;;0.10;0.10;;;5.10;99.90;226.50;231333.00;;;;4989539;28;20204;-71
2022/01/22 11:50:47;;;;;;;0.10;0.10;;;5.10;99.90;226.50;231333.00;;;;4993263;28;20259;-71
2022/01/22 11:53:25;;;;;;;0.10;0.10;;;5.10;99.90;226.50;231333.00;;;;4989676;28;20227;-71
2022/01/22 11:56:24;;;;;;;0.10;0.10;;;5.10;99.90;226.50;231333.00;;;;4989605;28;20215;-71
2022/01/22 11:59:28;;;;;;;0.10;0.10;;;5.10;99.90;226.50;231333.00;;;;4990201;28;20215;-72
2022/01/22 12:02:07;;;;;;;0.10;0.10;;;5.10;99.90;226.50;231333.00;;;;4990061;28;20192;-72
2022/01/22 12:05:05;;;;;;;0.10;0.10;;;5.10;99.90;226.50;231333.00;;;;4987402;28;20271;-71
2022/01/22 12:07:36;;;;;;;0.10;0.10;;;5.10;99.90;226.50;231333.00;;;;4988885;28;20208;-72
2022/01/22 12:10:33;;;;;;;0.10;0.10;;;5.10;99.90;226.50;231333.00;;;;4990647;28;20259;-71
2022/01/22 12:16:19;;;;;;;0.10;0.10;;;5.00;99.90;226.50;231333.00;;;;4992121;28;20204;-72
2022/01/22 12:18:57;;;;;;;0.10;0.10;;;5.10;99.90;226.50;231333.00;;;;4989460;28;20204;-72
2022/01/22 12:21:35;;;;;;;0.10;0.10;;;5.10;99.90;226.50;231333.00;;;;4990595;28;20336;-72
2022/01/22 12:24:12;;;;;;;0.10;0.10;;;5.10;99.90;226.50;231333.00;;;;4995831;28;20216;-73
2022/01/22 12:26:50;;;;;;;0.10;0.10;;;5.00;99.90;226.50;231333.00;;;;4991638;28;20195;-72